Terminal Aerodrome Forecast
Issued by NWS

Home | Current Version | Previous Version | Text Only | Print | Product List | Glossary On
Versions: 1 2 3 4 5 6 7 8 9 10 11 12 13 14 15 16 17 18 19
258
FTUS43 KDVN 241320 AAA
TAFBRL
TAF AMD
KBRL 241320Z 2413/2512 34006KT 5SM BR BKN004 OVC060
     FM241500 34006KT P6SM BKN015
     FM241700 36009KT P6SM OVC025
     FM241900 01011KT P6SM VCSH BKN040
     FM250000 35005KT P6SM BKN050=

USA.gov is the U.S. government's official web portal to all federal, state and local government web resources and services.